createdAt,value
2023-07-03T00:01:52.225Z,6.50
2023-07-03T00:04:19.181Z,5.80
2023-07-03T00:06:45.969Z,7.20
2023-07-03T00:09:12.726Z,7.97
2023-07-03T00:11:39.402Z,7.13
2023-07-03T00:14:07.472Z,6.30
2023-07-03T00:16:34.185Z,7.00
2023-07-03T00:19:00.905Z,7.00
2023-07-03T00:21:27.602Z,7.60
2023-07-03T00:23:54.280Z,7.33
2023-07-03T00:26:20.992Z,7.07
2023-07-03T00:28:47.676Z,8.03
2023-07-03T00:31:15.835Z,6.70
2023-07-03T00:33:42.604Z,7.83
2023-07-03T00:36:09.363Z,7.20
2023-07-03T00:38:36.072Z,7.23
2023-07-03T00:41:02.747Z,8.00
2023-07-03T00:43:32.887Z,6.33
2023-07-03T00:46:00.066Z,7.77
2023-07-03T00:48:28.980Z,6.37
2023-07-03T00:50:56.291Z,6.23
2023-07-03T00:53:23.000Z,7.70
2023-07-03T00:55:49.914Z,6.33
2023-07-03T00:58:16.915Z,7.17
2023-07-03T01:00:51.886Z,6.50
2023-07-03T01:03:26.759Z,7.37
2023-07-03T01:05:55.988Z,6.43
2023-07-03T01:08:23.451Z,7.10
2023-07-03T01:10:50.477Z,6.30
2023-07-03T01:13:18.958Z,7.17
2023-07-03T01:15:46.481Z,7.13
2023-07-03T01:18:14.338Z,6.50
2023-07-03T01:20:46.507Z,7.40
2023-07-03T01:23:21.918Z,6.17
2023-07-03T01:25:51.518Z,7.90
2023-07-03T01:28:22.060Z,6.57
2023-07-03T01:30:51.896Z,8.20
2023-07-03T01:33:22.149Z,7.10
2023-07-03T01:35:51.936Z,7.83
2023-07-03T01:38:20.102Z,7.70
2023-07-03T01:40:47.264Z,8.23
2023-07-03T01:43:15.708Z,7.27
2023-07-03T01:45:43.895Z,7.73
2023-07-03T01:48:10.755Z,7.37
2023-07-03T01:50:39.032Z,7.40
2023-07-03T01:53:11.325Z,6.80
2023-07-03T01:55:43.903Z,6.83
2023-07-03T01:58:19.615Z,7.53
2023-07-03T02:00:50.853Z,6.97
2023-07-03T02:03:25.701Z,7.60
2023-07-03T02:05:56.285Z,8.03
2023-07-03T02:08:24.865Z,6.90
2023-07-03T02:10:51.561Z,7.10
2023-07-03T02:13:19.628Z,6.30
2023-07-03T02:15:46.365Z,7.70
2023-07-03T02:18:13.069Z,6.50
2023-07-03T02:20:39.815Z,7.80
2023-07-03T02:23:06.559Z,7.90
2023-07-03T02:25:33.280Z,7.27
2023-07-03T02:27:59.960Z,7.70
2023-07-03T02:30:28.027Z,8.43
2023-07-03T02:32:54.785Z,8.40
2023-07-03T02:35:21.594Z,7.90
2023-07-03T02:37:48.302Z,8.53
2023-07-03T02:40:15.202Z,8.67
2023-07-03T02:42:41.983Z,6.40
2023-07-03T02:45:09.392Z,8.23
2023-07-03T02:47:38.498Z,7.57
2023-07-03T02:50:06.131Z,8.53
2023-07-03T02:52:32.980Z,7.97
2023-07-03T02:54:59.721Z,7.17
2023-07-03T02:57:26.426Z,8.13
2023-07-03T02:59:53.191Z,7.80
2023-07-03T03:02:20.484Z,8.07
2023-07-03T03:04:48.737Z,6.80
2023-07-03T03:07:15.742Z,7.93
2023-07-03T03:09:42.494Z,8.40
2023-07-03T03:12:09.828Z,6.70
2023-07-03T03:14:36.548Z,7.10
2023-07-03T03:17:03.578Z,7.80
2023-07-03T03:19:30.341Z,6.17
2023-07-03T03:21:58.405Z,7.57
2023-07-03T03:24:25.951Z,7.37
2023-07-03T03:26:52.784Z,7.20
2023-07-03T03:29:19.485Z,6.33
2023-07-03T03:31:46.182Z,6.90
2023-07-03T03:34:12.890Z,6.90
2023-07-03T03:36:40.480Z,8.10
2023-07-03T03:39:08.710Z,7.00
2023-07-03T03:41:35.415Z,7.10
2023-07-03T03:44:02.151Z,8.23
2023-07-03T03:46:28.972Z,6.87
2023-07-03T03:48:55.903Z,7.73
2023-07-03T03:51:23.175Z,7.10
2023-07-03T03:53:49.920Z,7.23
2023-07-03T03:56:18.033Z,7.50
2023-07-03T03:58:44.749Z,7.53
2023-07-03T04:01:11.724Z,7.23
2023-07-03T04:03:38.677Z,7.73
2023-07-03T04:06:06.129Z,7.63
2023-07-03T04:08:33.125Z,7.00
2023-07-03T04:10:59.789Z,6.10
2023-07-03T04:13:27.915Z,7.47
2023-07-03T04:16:01.061Z,6.67
2023-07-03T04:18:29.135Z,6.37
2023-07-03T04:20:56.035Z,7.80
2023-07-03T04:23:23.164Z,6.43
2023-07-03T04:25:50.230Z,7.87
2023-07-03T04:28:18.882Z,7.73
2023-07-03T04:30:47.597Z,7.40
2023-07-03T04:33:14.508Z,7.00
2023-07-03T04:35:41.752Z,8.20
2023-07-03T04:38:08.754Z,6.90
2023-07-03T04:40:35.984Z,7.30
2023-07-03T04:43:02.725Z,7.80
2023-07-03T04:45:32.428Z,7.53
2023-07-03T04:48:00.471Z,6.87
2023-07-03T04:50:27.155Z,7.67
2023-07-03T04:52:56.120Z,7.80
2023-07-03T04:55:23.554Z,8.20
2023-07-03T04:57:50.274Z,6.00
2023-07-03T05:00:19.474Z,6.70
2023-07-03T05:02:48.085Z,7.70
2023-07-03T05:05:17.829Z,7.97
2023-07-03T05:07:46.000Z,8.43
2023-07-03T05:10:16.164Z,8.20
2023-07-03T05:12:42.994Z,7.90
2023-07-03T05:15:11.880Z,8.30
2023-07-03T05:17:39.184Z,8.50
2023-07-03T05:20:07.441Z,8.10
2023-07-03T05:22:36.453Z,8.30
2023-07-03T05:25:03.259Z,8.33
2023-07-03T05:27:29.954Z,7.83
2023-07-03T05:29:56.700Z,7.40
2023-07-03T05:32:23.537Z,7.83
2023-07-03T05:34:50.257Z,8.80
2023-07-03T05:37:17.913Z,8.17
2023-07-03T05:39:46.099Z,8.30
2023-07-03T05:42:12.807Z,9.13
2023-07-03T05:44:39.529Z,9.00
2023-07-03T05:47:07.977Z,7.60
2023-07-03T05:49:34.875Z,8.70
2023-07-03T05:52:01.591Z,6.70
2023-07-03T05:54:28.258Z,9.00
2023-07-03T05:57:00.858Z,9.80
2023-07-03T05:59:27.922Z,8.70
2023-07-03T06:01:56.629Z,8.30
2023-07-03T06:04:23.574Z,7.93
2023-07-03T06:06:50.482Z,7.20
2023-07-03T06:09:17.234Z,8.40
2023-07-03T06:11:43.971Z,6.30
2023-07-03T06:14:15.952Z,6.70
2023-07-03T06:16:42.875Z,6.90
2023-07-03T06:19:10.057Z,6.23
2023-07-03T06:21:36.795Z,5.50
2023-07-03T06:24:03.709Z,7.37
2023-07-03T06:26:30.466Z,5.67
2023-07-03T06:28:57.322Z,5.87
2023-07-03T06:31:25.378Z,5.90
2023-07-03T06:33:52.114Z,6.00
2023-07-03T06:36:18.999Z,5.40
2023-07-03T06:38:45.704Z,6.10
2023-07-03T06:41:12.399Z,5.80
2023-07-03T06:43:39.117Z,5.93
2023-07-03T06:46:05.827Z,5.97
2023-07-03T06:48:33.876Z,7.20
2023-07-03T06:51:04.447Z,5.17
2023-07-03T06:53:31.168Z,5.50
2023-07-03T06:55:59.083Z,5.63
2023-07-03T06:58:27.446Z,5.67
2023-07-03T07:00:54.297Z,7.07
2023-07-03T07:03:21.463Z,6.00
2023-07-03T07:05:50.054Z,6.60
2023-07-03T07:08:17.179Z,5.57
2023-07-03T07:10:44.125Z,6.60
2023-07-03T07:13:11.203Z,6.33
2023-07-03T07:15:38.728Z,6.13
2023-07-03T07:18:07.927Z,6.17
2023-07-03T07:20:37.358Z,5.90
2023-07-03T07:23:05.697Z,5.80
2023-07-03T07:25:32.382Z,5.63
2023-07-03T07:27:59.096Z,5.27
2023-07-03T07:30:25.902Z,5.67
2023-07-03T07:32:52.755Z,5.27
2023-07-03T07:35:20.467Z,4.67
2023-07-03T07:37:47.272Z,5.40
2023-07-03T07:40:16.483Z,4.67
2023-07-03T07:42:43.238Z,5.50
2023-07-03T07:45:10.748Z,5.40
2023-07-03T07:47:37.451Z,6.00
2023-07-03T07:50:04.955Z,5.30
2023-07-03T07:52:31.691Z,4.70
2023-07-03T07:54:59.077Z,4.30
2023-07-03T07:57:27.582Z,4.73
2023-07-03T07:59:54.397Z,6.53
2023-07-03T08:02:21.269Z,4.30
2023-07-03T08:04:48.259Z,5.50
2023-07-03T08:07:15.053Z,4.50
2023-07-03T08:09:42.826Z,5.10
2023-07-03T08:12:10.342Z,5.57
2023-07-03T08:14:38.402Z,4.40
2023-07-03T08:17:05.522Z,4.33
2023-07-03T08:19:32.227Z,4.17
2023-07-03T08:21:58.912Z,4.10
2023-07-03T08:24:25.742Z,3.87
2023-07-03T08:26:52.420Z,4.40
2023-07-03T08:29:19.108Z,3.80
2023-07-03T08:31:47.300Z,4.87
2023-07-03T08:34:14.018Z,4.27
2023-07-03T08:39:10.620Z,3.90
2023-07-03T08:41:42.700Z,3.60
2023-07-03T08:44:11.045Z,4.50
2023-07-03T08:46:39.426Z,4.97
2023-07-03T08:49:11.409Z,4.57
2023-07-03T08:51:40.019Z,5.10
2023-07-03T08:54:14.992Z,3.20
2023-07-03T08:56:41.953Z,3.63
2023-07-03T08:59:09.649Z,3.70
2023-07-03T09:01:47.324Z,5.00
2023-07-03T09:04:29.041Z,3.17
2023-07-03T09:06:59.456Z,4.10
2023-07-03T09:09:33.321Z,3.77
2023-07-03T09:12:07.040Z,3.43
2023-07-03T09:14:42.405Z,3.80
2023-07-03T09:17:10.727Z,3.80
2023-07-03T09:19:43.841Z,4.63
2023-07-03T09:22:17.812Z,4.50
2023-07-03T09:24:46.845Z,3.70
2023-07-03T09:27:19.577Z,4.20
2023-07-03T09:29:46.995Z,3.93
2023-07-03T09:32:25.161Z,3.87
2023-07-03T09:35:01.272Z,3.90
2023-07-03T09:37:28.099Z,3.50
2023-07-03T09:39:55.475Z,4.03
2023-07-03T09:42:24.078Z,3.80
2023-07-03T09:44:51.425Z,4.30
2023-07-03T09:47:21.823Z,3.33
2023-07-03T09:49:49.592Z,4.50
2023-07-03T09:52:17.914Z,3.80
2023-07-03T09:54:47.563Z,3.70
2023-07-03T09:57:24.855Z,3.50
2023-07-03T09:59:51.768Z,4.20
2023-07-03T10:07:23.740Z,3.50
2023-07-03T10:12:27.971Z,3.63
2023-07-03T10:15:00.169Z,4.07
2023-07-03T10:17:31.636Z,3.30
2023-07-03T10:20:02.342Z,3.70
2023-07-03T10:22:31.686Z,2.90
2023-07-03T10:25:03.989Z,4.40
2023-07-03T10:27:32.692Z,3.43
2023-07-03T10:30:01.228Z,3.60
2023-07-03T10:32:31.981Z,4.50
2023-07-03T10:35:07.446Z,3.23
2023-07-03T10:37:44.025Z,3.13
2023-07-03T10:40:18.272Z,4.40
2023-07-03T10:42:49.629Z,3.47
2023-07-03T10:45:16.891Z,4.07
2023-07-03T10:47:49.660Z,3.67
2023-07-03T10:50:17.502Z,3.57
2023-07-03T10:52:53.219Z,3.80
2023-07-03T10:55:27.826Z,3.60
2023-07-03T10:58:03.823Z,3.67
2023-07-03T11:00:35.717Z,3.27
2023-07-03T11:03:21.108Z,3.83
2023-07-03T11:05:57.668Z,3.97
2023-07-03T11:08:32.553Z,5.70
2023-07-03T11:11:07.783Z,4.00
2023-07-03T11:13:39.842Z,4.07
2023-07-03T11:16:13.258Z,3.47
2023-07-03T11:24:12.325Z,3.00
2023-07-03T11:29:11.841Z,4.10
2023-07-03T11:31:42.787Z,3.00
2023-07-03T11:36:51.026Z,5.23
2023-07-03T11:44:43.766Z,4.43
2023-07-03T11:47:13.266Z,5.20
2023-07-03T11:49:45.666Z,3.90
2023-07-03T11:52:14.462Z,3.30
2023-07-03T11:54:43.855Z,4.80
2023-07-03T11:57:26.909Z,3.90
2023-07-03T11:59:54.129Z,4.30
2023-07-03T12:02:55.889Z,5.03
2023-07-03T12:05:54.020Z,3.80
2023-07-03T12:08:40.895Z,3.50
2023-07-03T12:11:09.144Z,3.83
2023-07-03T12:13:46.429Z,3.60
2023-07-03T12:16:18.579Z,3.53
2023-07-03T12:18:45.508Z,4.00
2023-07-03T12:21:12.563Z,3.50
2023-07-03T12:23:41.536Z,4.17
2023-07-03T12:26:11.312Z,4.00
2023-07-03T12:28:38.563Z,3.70
2023-07-03T12:31:13.731Z,4.50
2023-07-03T12:33:49.824Z,3.60
2023-07-03T12:36:21.911Z,4.43
2023-07-03T12:38:48.694Z,4.50
2023-07-03T12:41:23.125Z,4.10
2023-07-03T12:44:03.496Z,3.90
2023-07-03T12:46:36.969Z,3.33
2023-07-03T12:49:05.748Z,3.57
2023-07-03T12:51:40.279Z,4.03
2023-07-03T12:54:09.207Z,3.30
2023-07-03T12:56:37.769Z,3.90
2023-07-03T12:59:05.024Z,3.40
2023-07-03T13:01:32.287Z,3.63
2023-07-03T13:03:59.288Z,3.70
2023-07-03T13:06:29.100Z,4.10
2023-07-03T13:08:57.187Z,3.60
2023-07-03T13:11:35.923Z,3.80
2023-07-03T13:14:13.212Z,3.10
2023-07-03T13:16:40.851Z,4.23
2023-07-03T13:19:07.834Z,3.57
2023-07-03T13:21:36.704Z,3.73
2023-07-03T13:24:09.238Z,4.50
2023-07-03T13:26:36.226Z,4.40
2023-07-03T13:29:03.881Z,4.13
2023-07-03T13:31:46.506Z,4.47
2023-07-03T13:34:19.828Z,4.00
2023-07-03T13:36:48.513Z,4.70
2023-07-03T13:39:26.985Z,4.13
2023-07-03T13:41:55.772Z,3.87
2023-07-03T13:44:25.231Z,4.60
2023-07-03T13:46:54.764Z,4.30
2023-07-03T13:49:21.656Z,4.30
2023-07-03T13:51:49.891Z,4.20
2023-07-03T13:54:17.111Z,4.30
2023-07-03T13:56:44.413Z,3.83
2023-07-03T13:59:11.759Z,4.30
2023-07-03T14:01:39.854Z,4.60
2023-07-03T14:04:09.812Z,4.20
2023-07-03T14:06:36.668Z,4.00
2023-07-03T14:09:03.830Z,3.70
2023-07-03T14:11:30.777Z,4.00
2023-07-03T14:13:57.839Z,4.57
2023-07-03T14:16:24.967Z,4.40
2023-07-03T14:18:51.696Z,3.53
2023-07-03T14:21:21.808Z,4.10
2023-07-03T14:23:48.556Z,3.37
2023-07-03T14:26:15.757Z,4.27
2023-07-03T14:28:44.084Z,4.00
2023-07-03T14:31:13.167Z,4.20
2023-07-03T14:33:40.148Z,3.70
2023-07-03T14:36:07.044Z,3.70
2023-07-03T14:38:35.126Z,5.00
2023-07-03T14:41:01.886Z,5.07
2023-07-03T14:43:28.673Z,4.47
2023-07-03T14:45:55.447Z,5.50
2023-07-03T14:48:22.353Z,4.00
2023-07-03T14:50:49.539Z,3.73
2023-07-03T14:53:16.531Z,4.53
2023-07-03T14:55:53.869Z,3.90
2023-07-03T14:58:20.678Z,4.60
2023-07-03T15:00:47.430Z,4.50
2023-07-03T15:03:14.624Z,6.20
2023-07-03T15:05:41.746Z,4.77
2023-07-03T15:08:08.665Z,4.50
2023-07-03T15:10:36.109Z,4.10
2023-07-03T15:13:04.305Z,3.93
2023-07-03T15:15:31.068Z,4.43
2023-07-03T15:17:58.818Z,5.10
2023-07-03T15:20:25.734Z,4.80
2023-07-03T15:22:53.280Z,5.00
2023-07-03T15:25:20.406Z,4.20
2023-07-03T15:27:47.334Z,4.23
2023-07-03T15:30:15.473Z,4.60
2023-07-03T15:32:42.265Z,5.40
2023-07-03T15:35:09.528Z,4.00
2023-07-03T15:37:36.727Z,5.10
2023-07-03T15:40:04.517Z,5.43
2023-07-03T15:42:31.235Z,4.80
2023-07-03T15:44:58.905Z,4.30
2023-07-03T15:47:27.494Z,5.03
2023-07-03T15:49:55.046Z,5.20
2023-07-03T15:52:21.781Z,5.20
2023-07-03T15:54:49.984Z,4.70
2023-07-03T15:57:16.741Z,5.00
2023-07-03T15:59:43.532Z,4.63
2023-07-03T16:02:10.271Z,4.70
2023-07-03T16:04:38.327Z,5.50
2023-07-03T16:07:05.656Z,4.23
2023-07-03T16:09:32.339Z,4.87
2023-07-03T16:11:59.125Z,4.03
2023-07-03T16:14:27.329Z,5.03
2023-07-03T16:16:54.067Z,4.80
2023-07-03T16:19:28.100Z,4.23
2023-07-03T16:21:56.178Z,4.40
2023-07-03T16:24:22.880Z,4.57
2023-07-03T16:26:49.607Z,4.97
2023-07-03T16:29:16.726Z,4.60
2023-07-03T16:31:46.127Z,5.00
2023-07-03T16:34:13.247Z,4.77
2023-07-03T16:36:39.949Z,5.70
2023-07-03T16:39:08.664Z,4.20
2023-07-03T16:41:38.317Z,4.87
2023-07-03T16:44:05.322Z,5.10
2023-07-03T16:46:32.409Z,4.33
2023-07-03T16:48:59.524Z,4.50
2023-07-03T16:51:27.455Z,4.97
2023-07-03T16:53:54.316Z,4.83
2023-07-03T16:56:25.230Z,4.73
2023-07-03T16:58:55.455Z,4.80
2023-07-03T17:01:24.088Z,5.10
2023-07-03T17:03:52.601Z,5.43
2023-07-03T17:06:20.813Z,4.20
2023-07-03T17:08:48.110Z,4.00
2023-07-03T17:11:15.010Z,4.67
2023-07-03T17:13:43.401Z,4.30
2023-07-03T17:16:10.333Z,4.40
2023-07-03T17:18:37.314Z,4.87
2023-07-03T17:21:04.208Z,3.93
2023-07-03T17:23:31.129Z,4.13
2023-07-03T17:25:58.289Z,4.00
2023-07-03T17:28:25.067Z,4.57
2023-07-03T17:30:53.156Z,4.97
2023-07-03T17:33:19.820Z,5.50
2023-07-03T17:35:46.552Z,4.37
2023-07-03T17:38:14.197Z,4.10
2023-07-03T17:40:43.183Z,5.10
2023-07-03T17:43:10.123Z,4.53
2023-07-03T17:45:36.904Z,4.90
2023-07-03T17:48:05.709Z,4.67
2023-07-03T17:50:32.693Z,4.30
2023-07-03T17:52:59.444Z,3.83
2023-07-03T17:55:26.155Z,3.50
2023-07-03T17:57:52.886Z,3.20
2023-07-03T18:00:22.918Z,3.73
2023-07-03T18:02:49.692Z,3.70
2023-07-03T18:05:18.103Z,3.63
2023-07-03T18:07:45.273Z,4.10
2023-07-03T18:10:12.024Z,4.00
2023-07-03T18:12:38.779Z,4.07
2023-07-03T18:15:06.211Z,3.60
2023-07-03T18:17:32.998Z,3.67
2023-07-03T18:19:59.771Z,3.70
2023-07-03T18:22:27.842Z,4.23
2023-07-03T18:24:54.595Z,3.43
2023-07-03T18:27:21.299Z,3.70
2023-07-03T18:29:48.149Z,3.43
2023-07-03T18:32:14.853Z,3.67
2023-07-03T18:34:41.550Z,4.17
2023-07-03T18:37:08.245Z,3.80
2023-07-03T18:39:36.297Z,3.30
2023-07-03T18:42:03.215Z,4.03
2023-07-03T18:44:29.958Z,3.10
2023-07-03T18:46:56.641Z,3.37
2023-07-03T18:49:23.322Z,3.80
2023-07-03T18:51:50.794Z,3.90
2023-07-03T18:54:17.747Z,4.20
2023-07-03T18:56:45.761Z,3.87
2023-07-03T18:59:12.461Z,4.30
2023-07-03T19:01:39.336Z,3.93
2023-07-03T19:04:06.138Z,4.50
2023-07-03T19:06:32.929Z,5.00
2023-07-03T19:08:59.653Z,4.97
2023-07-03T19:11:26.703Z,5.37
2023-07-03T19:13:54.963Z,4.27
2023-07-03T19:16:21.799Z,3.13
2023-07-03T19:18:48.533Z,4.23
2023-07-03T19:21:15.636Z,3.83
2023-07-03T19:23:42.784Z,3.97
2023-07-03T19:26:10.572Z,3.90
2023-07-03T19:28:37.320Z,4.10
2023-07-03T19:31:05.723Z,3.60
2023-07-03T19:33:32.680Z,3.70
2023-07-03T19:36:00.779Z,4.13
2023-07-03T19:38:27.917Z,4.43
2023-07-03T19:40:54.847Z,3.47
2023-07-03T19:43:21.792Z,4.47
2023-07-03T19:45:48.913Z,3.20
2023-07-03T19:48:17.751Z,3.00
2023-07-03T19:50:44.545Z,4.27
2023-07-03T19:53:11.383Z,3.63
2023-07-03T19:55:38.414Z,3.80
2023-07-03T19:58:05.271Z,4.67
2023-07-03T20:00:32.743Z,4.13
2023-07-03T20:02:59.574Z,4.70
2023-07-03T20:05:27.761Z,4.10
2023-07-03T20:07:54.485Z,4.60
2023-07-03T20:10:21.203Z,2.90
2023-07-03T20:12:51.343Z,3.83
2023-07-03T20:15:21.220Z,3.90
2023-07-03T20:17:48.025Z,4.20
2023-07-03T20:23:31.349Z,3.67
2023-07-03T20:25:59.453Z,4.03
2023-07-03T20:28:50.298Z,3.27
2023-07-03T20:31:20.177Z,4.70
2023-07-03T20:33:47.012Z,3.17
2023-07-03T20:36:14.382Z,4.40
2023-07-03T20:38:42.799Z,3.47
2023-07-03T20:41:11.286Z,4.13
2023-07-03T20:43:39.355Z,4.43
2023-07-03T20:46:08.287Z,4.80
2023-07-03T20:48:35.411Z,5.10
2023-07-03T20:51:02.284Z,5.10
2023-07-03T20:53:29.356Z,4.47
2023-07-03T20:56:03.760Z,4.10
2023-07-03T20:58:30.458Z,4.43
2023-07-03T21:01:07.658Z,4.13
2023-07-03T21:03:34.362Z,3.50
2023-07-03T21:06:01.243Z,3.60
2023-07-03T21:08:28.124Z,4.83
2023-07-03T21:10:57.984Z,4.70
2023-07-03T21:13:26.151Z,4.90
2023-07-03T21:15:52.990Z,4.20
2023-07-03T21:18:19.846Z,3.67
2023-07-03T21:20:46.545Z,3.87
2023-07-03T21:23:13.403Z,4.90
2023-07-03T21:25:40.466Z,3.60
2023-07-03T21:28:07.173Z,4.10
2023-07-03T21:30:40.958Z,4.10
2023-07-03T21:33:09.820Z,4.40
2023-07-03T21:35:36.532Z,4.27
2023-07-03T21:38:03.260Z,4.57
2023-07-03T21:40:30.002Z,4.00
2023-07-03T21:42:56.699Z,4.77
2023-07-03T21:45:23.359Z,4.17
2023-07-03T21:47:51.461Z,4.53
2023-07-03T21:50:18.248Z,5.07
2023-07-03T21:52:46.090Z,4.10
2023-07-03T21:55:12.923Z,3.70
2023-07-03T21:57:40.771Z,4.20
2023-07-03T22:00:08.946Z,4.17
2023-07-03T22:02:35.685Z,5.13
2023-07-03T22:05:04.018Z,4.87
2023-07-03T22:07:30.781Z,4.77
2023-07-03T22:09:57.659Z,3.23
2023-07-03T22:12:24.433Z,4.10
2023-07-03T22:14:51.108Z,5.33
2023-07-03T22:17:17.869Z,3.90
2023-07-03T22:19:44.535Z,3.60
2023-07-03T22:22:12.566Z,4.00
2023-07-03T22:24:39.362Z,4.00
2023-07-03T22:27:06.154Z,4.30
2023-07-03T22:29:33.283Z,4.33
2023-07-03T22:32:00.008Z,4.60
2023-07-03T22:34:26.813Z,3.97
2023-07-03T22:36:53.512Z,4.70
2023-07-03T22:39:21.596Z,4.10
2023-07-03T22:41:48.385Z,6.07
2023-07-03T22:44:15.083Z,4.53
2023-07-03T22:46:41.767Z,4.47
2023-07-03T22:49:23.207Z,4.30
2023-07-03T22:51:51.162Z,4.70
2023-07-03T22:54:17.890Z,4.10
2023-07-03T22:56:46.018Z,4.77
2023-07-03T22:59:14.239Z,4.67
2023-07-03T23:01:42.042Z,4.53
2023-07-03T23:04:08.845Z,3.90
2023-07-03T23:06:35.776Z,4.40
2023-07-03T23:09:02.493Z,4.70
2023-07-03T23:11:29.167Z,4.20
2023-07-03T23:13:57.282Z,5.00
2023-07-03T23:16:24.090Z,5.53
2023-07-03T23:18:50.899Z,4.13
2023-07-03T23:21:17.614Z,4.03
2023-07-03T23:23:45.272Z,4.43
2023-07-03T23:26:14.113Z,5.30
2023-07-03T23:28:42.094Z,5.30
2023-07-03T23:31:11.710Z,5.60
2023-07-03T23:33:39.469Z,4.77
2023-07-03T23:36:08.727Z,4.37
2023-07-03T23:38:36.588Z,5.60
2023-07-03T23:41:03.689Z,5.33
2023-07-03T23:43:30.362Z,5.40
2023-07-03T23:45:57.139Z,5.13
2023-07-03T23:48:25.597Z,5.30
2023-07-03T23:50:54.150Z,4.83
2023-07-03T23:53:22.645Z,4.63
2023-07-03T23:55:50.063Z,5.13
2023-07-03T23:58:17.091Z,4.70
